sensor_id;sensor_type;location;lat;lon;timestamp;temperature;humidity
10133;DHT22;5106;50.926;7.080;2022-12-10T00:01:32;-0.90;88.60
10133;DHT22;5106;50.926;7.080;2022-12-10T00:03:58;-1.00;88.60
10133;DHT22;5106;50.926;7.080;2022-12-10T00:06:29;-1.00;88.50
10133;DHT22;5106;50.926;7.080;2022-12-10T00:08:55;-1.00;88.40
10133;DHT22;5106;50.926;7.080;2022-12-10T00:11:22;-1.10;88.30
10133;DHT22;5106;50.926;7.080;2022-12-10T00:13:48;-1.10;88.30
10133;DHT22;5106;50.926;7.080;2022-12-10T00:16:16;-1.30;88.20
10133;DHT22;5106;50.926;7.080;2022-12-10T00:18:42;-1.30;88.10
10133;DHT22;5106;50.926;7.080;2022-12-10T00:21:10;-1.30;88.30
10133;DHT22;5106;50.926;7.080;2022-12-10T00:23:36;-1.40;88.20
10133;DHT22;5106;50.926;7.080;2022-12-10T00:26:14;-1.40;88.40
10133;DHT22;5106;50.926;7.080;2022-12-10T00:28:40;-1.40;88.40
10133;DHT22;5106;50.926;7.080;2022-12-10T00:31:09;-1.40;88.50
10133;DHT22;5106;50.926;7.080;2022-12-10T00:33:35;-1.40;88.50
10133;DHT22;5106;50.926;7.080;2022-12-10T00:36:06;-1.40;88.50
10133;DHT22;5106;50.926;7.080;2022-12-10T00:38:32;-1.40;88.50
10133;DHT22;5106;50.926;7.080;2022-12-10T00:40:57;-1.40;88.50
10133;DHT22;5106;50.926;7.080;2022-12-10T00:43:23;-1.40;88.60
10133;DHT22;5106;50.926;7.080;2022-12-10T00:45:48;-1.40;88.50
10133;DHT22;5106;50.926;7.080;2022-12-10T00:48:14;-1.40;88.50
10133;DHT22;5106;50.926;7.080;2022-12-10T00:50:39;-1.40;88.50
10133;DHT22;5106;50.926;7.080;2022-12-10T00:53:05;-1.40;88.50
10133;DHT22;5106;50.926;7.080;2022-12-10T00:55:31;-1.50;88.50
10133;DHT22;5106;50.926;7.080;2022-12-10T00:57:56;-1.50;88.50
10133;DHT22;5106;50.926;7.080;2022-12-10T01:00:22;-1.50;88.50
10133;DHT22;5106;50.926;7.080;2022-12-10T01:02:47;-1.40;88.60
10133;DHT22;5106;50.926;7.080;2022-12-10T01:05:13;-1.40;88.60
10133;DHT22;5106;50.926;7.080;2022-12-10T01:07:38;-1.40;88.50
10133;DHT22;5106;50.926;7.080;2022-12-10T01:10:04;-1.50;88.40
10133;DHT22;5106;50.926;7.080;2022-12-10T01:12:30;-1.50;88.40
10133;DHT22;5106;50.926;7.080;2022-12-10T01:14:55;-1.60;88.40
10133;DHT22;5106;50.926;7.080;2022-12-10T01:17:21;-1.60;88.40
10133;DHT22;5106;50.926;7.080;2022-12-10T01:19:47;-1.60;88.30
10133;DHT22;5106;50.926;7.080;2022-12-10T01:22:12;-1.70;88.30
10133;DHT22;5106;50.926;7.080;2022-12-10T01:24:38;-1.60;88.30
10133;DHT22;5106;50.926;7.080;2022-12-10T01:27:04;-1.70;88.40
10133;DHT22;5106;50.926;7.080;2022-12-10T01:29:30;-1.80;88.10
10133;DHT22;5106;50.926;7.080;2022-12-10T01:31:57;-1.80;88.20
10133;DHT22;5106;50.926;7.080;2022-12-10T01:34:23;-1.80;88.30
10133;DHT22;5106;50.926;7.080;2022-12-10T01:36:52;-1.90;88.10
10133;DHT22;5106;50.926;7.080;2022-12-10T01:39:19;-1.90;88.30
10133;DHT22;5106;50.926;7.080;2022-12-10T01:41:54;-1.90;88.40
10133;DHT22;5106;50.926;7.080;2022-12-10T01:46:48;-1.80;88.50
10133;DHT22;5106;50.926;7.080;2022-12-10T01:49:17;-1.90;88.60
10133;DHT22;5106;50.926;7.080;2022-12-10T01:51:52;-1.90;88.50
10133;DHT22;5106;50.926;7.080;2022-12-10T01:54:22;-1.80;88.60
10133;DHT22;5106;50.926;7.080;2022-12-10T01:57:01;-1.80;88.50
10133;DHT22;5106;50.926;7.080;2022-12-10T01:59:28;-1.80;88.50
10133;DHT22;5106;50.926;7.080;2022-12-10T02:05:05;-1.80;88.30
10133;DHT22;5106;50.926;7.080;2022-12-10T02:08:26;-1.80;88.30
10133;DHT22;5106;50.926;7.080;2022-12-10T02:16:21;-1.80;88.10
10133;DHT22;5106;50.926;7.080;2022-12-10T02:18:57;-1.80;88.30
10133;DHT22;5106;50.926;7.080;2022-12-10T02:21:38;-1.90;88.10
10133;DHT22;5106;50.926;7.080;2022-12-10T02:24:09;-1.90;88.00
10133;DHT22;5106;50.926;7.080;2022-12-10T02:27:02;-1.90;88.10
10133;DHT22;5106;50.926;7.080;2022-12-10T02:29:30;-1.90;88.10
10133;DHT22;5106;50.926;7.080;2022-12-10T02:32:04;-2.00;88.10
10133;DHT22;5106;50.926;7.080;2022-12-10T02:34:37;-2.00;88.30
10133;DHT22;5106;50.926;7.080;2022-12-10T02:37:08;-2.00;88.30
10133;DHT22;5106;50.926;7.080;2022-12-10T02:39:38;-2.00;88.30
10133;DHT22;5106;50.926;7.080;2022-12-10T02:42:06;-2.00;88.30
10133;DHT22;5106;50.926;7.080;2022-12-10T02:44:34;-2.00;88.40
10133;DHT22;5106;50.926;7.080;2022-12-10T02:47:02;-2.00;88.30
10133;DHT22;5106;50.926;7.080;2022-12-10T02:49:29;-2.10;88.40
10133;DHT22;5106;50.926;7.080;2022-12-10T02:51:55;-2.10;88.20
10133;DHT22;5106;50.926;7.080;2022-12-10T02:57:07;-2.10;88.40
10133;DHT22;5106;50.926;7.080;2022-12-10T03:02:30;-2.00;88.40
10133;DHT22;5106;50.926;7.080;2022-12-10T03:07:58;-2.10;88.20
10133;DHT22;5106;50.926;7.080;2022-12-10T03:13:13;-2.00;88.40
10133;DHT22;5106;50.926;7.080;2022-12-10T03:15:41;-2.00;88.30
10133;DHT22;5106;50.926;7.080;2022-12-10T03:18:09;-2.00;88.40
10133;DHT22;5106;50.926;7.080;2022-12-10T03:20:40;-1.90;88.50
10133;DHT22;5106;50.926;7.080;2022-12-10T03:23:10;-1.90;88.50
10133;DHT22;5106;50.926;7.080;2022-12-10T03:25:37;-1.90;88.50
10133;DHT22;5106;50.926;7.080;2022-12-10T03:28:04;-1.90;88.40
10133;DHT22;5106;50.926;7.080;2022-12-10T03:30:32;-1.90;88.50
10133;DHT22;5106;50.926;7.080;2022-12-10T03:32:59;-1.80;88.50
10133;DHT22;5106;50.926;7.080;2022-12-10T03:35:25;-1.70;88.60
10133;DHT22;5106;50.926;7.080;2022-12-10T03:37:51;-1.70;88.50
10133;DHT22;5106;50.926;7.080;2022-12-10T03:40:19;-1.70;88.50
10133;DHT22;5106;50.926;7.080;2022-12-10T03:42:46;-1.60;88.60
10133;DHT22;5106;50.926;7.080;2022-12-10T03:45:12;-1.60;88.60
10133;DHT22;5106;50.926;7.080;2022-12-10T03:47:39;-1.60;88.60
10133;DHT22;5106;50.926;7.080;2022-12-10T03:50:05;-1.60;88.60
10133;DHT22;5106;50.926;7.080;2022-12-10T03:52:31;-1.60;88.60
10133;DHT22;5106;50.926;7.080;2022-12-10T03:54:56;-1.60;88.50
10133;DHT22;5106;50.926;7.080;2022-12-10T03:57:22;-1.50;88.60
10133;DHT22;5106;50.926;7.080;2022-12-10T03:59:47;-1.50;88.70
10133;DHT22;5106;50.926;7.080;2022-12-10T04:02:13;-1.50;88.70
10133;DHT22;5106;50.926;7.080;2022-12-10T04:04:39;-1.50;88.50
10133;DHT22;5106;50.926;7.080;2022-12-10T04:07:04;-1.50;88.70
10133;DHT22;5106;50.926;7.080;2022-12-10T04:09:30;-1.50;88.50
10133;DHT22;5106;50.926;7.080;2022-12-10T04:11:57;-1.50;88.50
10133;DHT22;5106;50.926;7.080;2022-12-10T04:14:23;-1.60;88.60
10133;DHT22;5106;50.926;7.080;2022-12-10T04:17:07;-1.60;88.60
10133;DHT22;5106;50.926;7.080;2022-12-10T04:19:33;-1.50;88.70
10133;DHT22;5106;50.926;7.080;2022-12-10T04:21:58;-1.40;88.90
10133;DHT22;5106;50.926;7.080;2022-12-10T04:24:42;-1.50;88.70
10133;DHT22;5106;50.926;7.080;2022-12-10T04:27:36;-1.70;88.40
10133;DHT22;5106;50.926;7.080;2022-12-10T04:30:05;-1.60;88.70
10133;DHT22;5106;50.926;7.080;2022-12-10T04:32:31;-1.60;88.80
10133;DHT22;5106;50.926;7.080;2022-12-10T04:34:57;-1.70;88.70
10133;DHT22;5106;50.926;7.080;2022-12-10T04:37:23;-1.70;88.60
10133;DHT22;5106;50.926;7.080;2022-12-10T04:39:50;-1.80;88.70
10133;DHT22;5106;50.926;7.080;2022-12-10T04:42:16;-1.70;88.90
10133;DHT22;5106;50.926;7.080;2022-12-10T04:44:41;-1.80;88.80
10133;DHT22;5106;50.926;7.080;2022-12-10T04:47:08;-1.70;89.00
10133;DHT22;5106;50.926;7.080;2022-12-10T04:49:35;-1.80;89.00
10133;DHT22;5106;50.926;7.080;2022-12-10T04:52:01;-1.80;89.00
10133;DHT22;5106;50.926;7.080;2022-12-10T04:54:27;-1.80;89.00
10133;DHT22;5106;50.926;7.080;2022-12-10T04:56:53;-1.70;89.20
10133;DHT22;5106;50.926;7.080;2022-12-10T04:59:19;-1.70;89.30
10133;DHT22;5106;50.926;7.080;2022-12-10T05:01:45;-1.70;89.20
10133;DHT22;5106;50.926;7.080;2022-12-10T05:04:13;-1.60;89.10
10133;DHT22;5106;50.926;7.080;2022-12-10T05:06:39;-1.50;89.20
10133;DHT22;5106;50.926;7.080;2022-12-10T05:09:05;-1.40;89.20
10133;DHT22;5106;50.926;7.080;2022-12-10T05:11:32;-1.40;89.10
10133;DHT22;5106;50.926;7.080;2022-12-10T05:13:59;-1.40;89.10
10133;DHT22;5106;50.926;7.080;2022-12-10T05:16:28;-1.30;89.10
10133;DHT22;5106;50.926;7.080;2022-12-10T05:18:55;-1.30;89.00
10133;DHT22;5106;50.926;7.080;2022-12-10T05:21:23;-1.20;89.00
10133;DHT22;5106;50.926;7.080;2022-12-10T05:23:51;-1.20;88.70
10133;DHT22;5106;50.926;7.080;2022-12-10T05:28:47;-1.20;88.60
10133;DHT22;5106;50.926;7.080;2022-12-10T05:31:21;-1.10;88.60
10133;DHT22;5106;50.926;7.080;2022-12-10T05:33:47;-1.00;88.70
10133;DHT22;5106;50.926;7.080;2022-12-10T05:36:15;-1.00;88.50
10133;DHT22;5106;50.926;7.080;2022-12-10T05:38:41;-1.00;88.50
10133;DHT22;5106;50.926;7.080;2022-12-10T05:41:13;-1.00;88.50
10133;DHT22;5106;50.926;7.080;2022-12-10T05:43:39;-1.10;88.40
10133;DHT22;5106;50.926;7.080;2022-12-10T05:46:08;-1.00;88.50
10133;DHT22;5106;50.926;7.080;2022-12-10T05:48:35;-1.10;88.50
10133;DHT22;5106;50.926;7.080;2022-12-10T05:51:08;-1.10;88.40
10133;DHT22;5106;50.926;7.080;2022-12-10T05:53:34;-1.10;88.50
10133;DHT22;5106;50.926;7.080;2022-12-10T05:56:01;-1.10;88.40
10133;DHT22;5106;50.926;7.080;2022-12-10T05:58:28;-1.10;88.50
10133;DHT22;5106;50.926;7.080;2022-12-10T06:00:55;-1.10;88.60
10133;DHT22;5106;50.926;7.080;2022-12-10T06:03:21;-1.10;88.60
10133;DHT22;5106;50.926;7.080;2022-12-10T06:05:46;-1.00;88.60
10133;DHT22;5106;50.926;7.080;2022-12-10T06:08:12;-1.00;88.60
10133;DHT22;5106;50.926;7.080;2022-12-10T06:10:38;-1.00;88.60
10133;DHT22;5106;50.926;7.080;2022-12-10T06:13:04;-1.00;88.60
10133;DHT22;5106;50.926;7.080;2022-12-10T06:15:30;-1.00;88.70
10133;DHT22;5106;50.926;7.080;2022-12-10T06:17:56;-1.00;88.60
10133;DHT22;5106;50.926;7.080;2022-12-10T06:20:23;-1.00;88.60
10133;DHT22;5106;50.926;7.080;2022-12-10T06:22:48;-1.00;88.70
10133;DHT22;5106;50.926;7.080;2022-12-10T06:25:14;-1.00;88.70
10133;DHT22;5106;50.926;7.080;2022-12-10T06:27:40;-1.00;88.80
10133;DHT22;5106;50.926;7.080;2022-12-10T06:30:06;-1.00;88.70
10133;DHT22;5106;50.926;7.080;2022-12-10T06:32:32;-1.00;88.70
10133;DHT22;5106;50.926;7.080;2022-12-10T06:34:58;-0.90;88.80
10133;DHT22;5106;50.926;7.080;2022-12-10T06:37:23;-0.90;88.90
10133;DHT22;5106;50.926;7.080;2022-12-10T06:39:52;-0.90;88.80
10133;DHT22;5106;50.926;7.080;2022-12-10T06:42:19;-0.90;88.80
10133;DHT22;5106;50.926;7.080;2022-12-10T06:44:45;-0.80;88.90
10133;DHT22;5106;50.926;7.080;2022-12-10T06:47:11;-0.90;88.70
10133;DHT22;5106;50.926;7.080;2022-12-10T06:49:36;-0.90;88.70
10133;DHT22;5106;50.926;7.080;2022-12-10T06:52:02;-0.90;88.70
10133;DHT22;5106;50.926;7.080;2022-12-10T06:54:28;-0.90;88.70
10133;DHT22;5106;50.926;7.080;2022-12-10T06:56:54;-0.90;88.70
10133;DHT22;5106;50.926;7.080;2022-12-10T06:59:19;-0.80;88.80
10133;DHT22;5106;50.926;7.080;2022-12-10T07:01:46;-0.80;88.70
10133;DHT22;5106;50.926;7.080;2022-12-10T07:04:12;-0.80;88.70
10133;DHT22;5106;50.926;7.080;2022-12-10T07:06:37;-0.80;88.70
10133;DHT22;5106;50.926;7.080;2022-12-10T07:09:03;-0.80;88.80
10133;DHT22;5106;50.926;7.080;2022-12-10T07:11:29;-0.80;88.80
10133;DHT22;5106;50.926;7.080;2022-12-10T07:13:57;-0.80;88.80
10133;DHT22;5106;50.926;7.080;2022-12-10T07:16:28;-0.90;88.70
10133;DHT22;5106;50.926;7.080;2022-12-10T07:18:56;-0.80;88.80
10133;DHT22;5106;50.926;7.080;2022-12-10T07:21:28;-0.90;88.80
10133;DHT22;5106;50.926;7.080;2022-12-10T07:23:55;-0.90;88.70
10133;DHT22;5106;50.926;7.080;2022-12-10T07:26:24;-0.80;88.80
10133;DHT22;5106;50.926;7.080;2022-12-10T07:28:50;-0.80;88.80
10133;DHT22;5106;50.926;7.080;2022-12-10T07:31:15;-0.80;88.80
10133;DHT22;5106;50.926;7.080;2022-12-10T07:33:41;-0.80;88.90
10133;DHT22;5106;50.926;7.080;2022-12-10T07:36:09;-0.80;88.80
10133;DHT22;5106;50.926;7.080;2022-12-10T07:38:35;-0.70;88.70
10133;DHT22;5106;50.926;7.080;2022-12-10T07:41:05;-0.70;88.70
10133;DHT22;5106;50.926;7.080;2022-12-10T07:43:38;-0.70;88.70
10133;DHT22;5106;50.926;7.080;2022-12-10T07:48:31;-0.60;88.80
10133;DHT22;5106;50.926;7.080;2022-12-10T07:50:57;-0.60;88.80
10133;DHT22;5106;50.926;7.080;2022-12-10T07:53:23;-0.60;88.70
10133;DHT22;5106;50.926;7.080;2022-12-10T07:55:49;-0.60;88.70
10133;DHT22;5106;50.926;7.080;2022-12-10T07:58:14;-0.60;88.70
10133;DHT22;5106;50.926;7.080;2022-12-10T08:00:40;-0.50;88.70
10133;DHT22;5106;50.926;7.080;2022-12-10T08:03:05;-0.50;88.80
10133;DHT22;5106;50.926;7.080;2022-12-10T08:05:31;-0.50;88.80
10133;DHT22;5106;50.926;7.080;2022-12-10T08:07:56;-0.50;88.60
10133;DHT22;5106;50.926;7.080;2022-12-10T08:10:22;-0.60;88.60
10133;DHT22;5106;50.926;7.080;2022-12-10T08:12:47;-0.50;88.70
10133;DHT22;5106;50.926;7.080;2022-12-10T08:15:13;-0.50;88.70
10133;DHT22;5106;50.926;7.080;2022-12-10T08:17:38;-0.40;88.80
10133;DHT22;5106;50.926;7.080;2022-12-10T08:20:04;-0.40;88.70
10133;DHT22;5106;50.926;7.080;2022-12-10T08:22:30;-0.50;88.50
10133;DHT22;5106;50.926;7.080;2022-12-10T08:24:56;-0.50;88.30
10133;DHT22;5106;50.926;7.080;2022-12-10T08:27:21;-0.50;88.40
10133;DHT22;5106;50.926;7.080;2022-12-10T08:29:47;-0.50;88.50
10133;DHT22;5106;50.926;7.080;2022-12-10T08:32:12;-0.50;88.60
10133;DHT22;5106;50.926;7.080;2022-12-10T08:34:38;-0.50;88.60
10133;DHT22;5106;50.926;7.080;2022-12-10T08:37:04;-0.40;88.60
10133;DHT22;5106;50.926;7.080;2022-12-10T08:39:29;-0.40;88.70
10133;DHT22;5106;50.926;7.080;2022-12-10T08:41:55;-0.30;88.70
10133;DHT22;5106;50.926;7.080;2022-12-10T08:44:20;-0.30;88.80
10133;DHT22;5106;50.926;7.080;2022-12-10T08:46:46;-0.20;88.80
10133;DHT22;5106;50.926;7.080;2022-12-10T08:49:11;-0.20;88.50
10133;DHT22;5106;50.926;7.080;2022-12-10T08:51:37;-0.20;88.30
10133;DHT22;5106;50.926;7.080;2022-12-10T08:54:03;-0.20;88.40
10133;DHT22;5106;50.926;7.080;2022-12-10T08:56:29;-0.20;88.40
10133;DHT22;5106;50.926;7.080;2022-12-10T08:58:55;-0.20;88.40
10133;DHT22;5106;50.926;7.080;2022-12-10T09:01:21;-0.20;88.40
10133;DHT22;5106;50.926;7.080;2022-12-10T09:03:46;-0.10;88.40
10133;DHT22;5106;50.926;7.080;2022-12-10T09:06:15;-0.10;88.40
10133;DHT22;5106;50.926;7.080;2022-12-10T09:08:41;0.00;88.50
10133;DHT22;5106;50.926;7.080;2022-12-10T09:11:09;0.00;88.50
10133;DHT22;5106;50.926;7.080;2022-12-10T09:13:35;0.00;88.50
10133;DHT22;5106;50.926;7.080;2022-12-10T09:16:01;0.00;88.40
10133;DHT22;5106;50.926;7.080;2022-12-10T09:18:27;0.00;88.40
10133;DHT22;5106;50.926;7.080;2022-12-10T09:20:52;0.10;88.40
10133;DHT22;5106;50.926;7.080;2022-12-10T09:23:18;0.10;88.40
10133;DHT22;5106;50.926;7.080;2022-12-10T09:25:43;0.10;88.40
10133;DHT22;5106;50.926;7.080;2022-12-10T09:28:09;0.20;88.40
10133;DHT22;5106;50.926;7.080;2022-12-10T09:30:35;0.20;88.40
10133;DHT22;5106;50.926;7.080;2022-12-10T09:33:00;0.20;88.30
10133;DHT22;5106;50.926;7.080;2022-12-10T09:35:26;0.30;88.30
10133;DHT22;5106;50.926;7.080;2022-12-10T09:37:52;0.30;88.30
10133;DHT22;5106;50.926;7.080;2022-12-10T09:40:26;0.40;88.20
10133;DHT22;5106;50.926;7.080;2022-12-10T09:43:22;0.40;88.20
10133;DHT22;5106;50.926;7.080;2022-12-10T09:46:10;0.40;88.10
10133;DHT22;5106;50.926;7.080;2022-12-10T09:48:54;0.50;88.10
10133;DHT22;5106;50.926;7.080;2022-12-10T09:51:27;0.50;88.10
10133;DHT22;5106;50.926;7.080;2022-12-10T09:53:56;0.60;88.10
10133;DHT22;5106;50.926;7.080;2022-12-10T09:56:44;0.70;88.10
10133;DHT22;5106;50.926;7.080;2022-12-10T09:59:24;0.70;88.10
10133;DHT22;5106;50.926;7.080;2022-12-10T10:04:40;0.80;87.90
10133;DHT22;5106;50.926;7.080;2022-12-10T10:07:06;0.80;87.80
10133;DHT22;5106;50.926;7.080;2022-12-10T10:09:38;0.80;87.60
10133;DHT22;5106;50.926;7.080;2022-12-10T10:12:12;0.90;87.60
10133;DHT22;5106;50.926;7.080;2022-12-10T10:14:38;0.90;87.60
10133;DHT22;5106;50.926;7.080;2022-12-10T10:17:12;0.90;87.70
10133;DHT22;5106;50.926;7.080;2022-12-10T10:19:39;0.90;87.60
10133;DHT22;5106;50.926;7.080;2022-12-10T10:22:08;0.90;87.60
10133;DHT22;5106;50.926;7.080;2022-12-10T10:24:40;0.90;87.60
10133;DHT22;5106;50.926;7.080;2022-12-10T10:29:44;1.00;87.60
10133;DHT22;5106;50.926;7.080;2022-12-10T10:35:02;1.00;87.40
10133;DHT22;5106;50.926;7.080;2022-12-10T10:37:40;1.00;87.40
10133;DHT22;5106;50.926;7.080;2022-12-10T10:40:20;1.00;87.30
10133;DHT22;5106;50.926;7.080;2022-12-10T10:42:47;1.00;87.30
10133;DHT22;5106;50.926;7.080;2022-12-10T10:45:35;1.00;87.00
10133;DHT22;5106;50.926;7.080;2022-12-10T10:48:18;1.00;87.00
10133;DHT22;5106;50.926;7.080;2022-12-10T10:50:53;1.00;86.70
10133;DHT22;5106;50.926;7.080;2022-12-10T10:53:23;1.00;86.70
10133;DHT22;5106;50.926;7.080;2022-12-10T10:55:49;1.00;86.70
10133;DHT22;5106;50.926;7.080;2022-12-10T10:58:19;1.00;86.70
10133;DHT22;5106;50.926;7.080;2022-12-10T11:01:01;0.90;86.70
10133;DHT22;5106;50.926;7.080;2022-12-10T11:03:29;0.90;86.70
10133;DHT22;5106;50.926;7.080;2022-12-10T11:05:57;0.90;86.80
10133;DHT22;5106;50.926;7.080;2022-12-10T11:08:26;0.90;86.70
10133;DHT22;5106;50.926;7.080;2022-12-10T11:11:05;0.90;86.80
10133;DHT22;5106;50.926;7.080;2022-12-10T11:13:34;1.00;86.70
10133;DHT22;5106;50.926;7.080;2022-12-10T11:16:02;1.00;86.80
10133;DHT22;5106;50.926;7.080;2022-12-10T11:18:36;1.00;86.70
10133;DHT22;5106;50.926;7.080;2022-12-10T11:23:44;1.10;86.70
10133;DHT22;5106;50.926;7.080;2022-12-10T11:26:45;1.10;86.60
10133;DHT22;5106;50.926;7.080;2022-12-10T11:35:48;1.00;86.10
10133;DHT22;5106;50.926;7.080;2022-12-10T11:38:26;1.00;86.20
10133;DHT22;5106;50.926;7.080;2022-12-10T11:41:16;1.00;85.90
10133;DHT22;5106;50.926;7.080;2022-12-10T12:00:23;0.90;87.00
10133;DHT22;5106;50.926;7.080;2022-12-10T12:14:43;0.90;87.20
10133;DHT22;5106;50.926;7.080;2022-12-10T12:17:27;0.90;87.10
10133;DHT22;5106;50.926;7.080;2022-12-10T12:19:56;0.90;87.20
10133;DHT22;5106;50.926;7.080;2022-12-10T12:22:29;1.00;87.20
10133;DHT22;5106;50.926;7.080;2022-12-10T12:25:07;1.00;87.20
10133;DHT22;5106;50.926;7.080;2022-12-10T12:27:38;1.10;87.00
10133;DHT22;5106;50.926;7.080;2022-12-10T12:32:44;1.10;86.90
10133;DHT22;5106;50.926;7.080;2022-12-10T12:35:19;1.20;86.90
10133;DHT22;5106;50.926;7.080;2022-12-10T12:37:59;1.20;86.90
10133;DHT22;5106;50.926;7.080;2022-12-10T12:40:30;1.30;86.90
10133;DHT22;5106;50.926;7.080;2022-12-10T12:43:25;1.30;86.80
10133;DHT22;5106;50.926;7.080;2022-12-10T12:45:54;1.40;86.80
10133;DHT22;5106;50.926;7.080;2022-12-10T12:53:34;1.50;86.30
10133;DHT22;5106;50.926;7.080;2022-12-10T12:56:23;1.50;86.20
10133;DHT22;5106;50.926;7.080;2022-12-10T13:04:45;1.50;85.70
10133;DHT22;5106;50.926;7.080;2022-12-10T13:09:47;1.50;85.70
10133;DHT22;5106;50.926;7.080;2022-12-10T13:15:47;1.50;85.40
10133;DHT22;5106;50.926;7.080;2022-12-10T13:23:29;1.40;85.70
10133;DHT22;5106;50.926;7.080;2022-12-10T13:25:58;1.40;85.90
10133;DHT22;5106;50.926;7.080;2022-12-10T13:31:18;1.40;85.70
10133;DHT22;5106;50.926;7.080;2022-12-10T13:34:10;1.40;85.30
10133;DHT22;5106;50.926;7.080;2022-12-10T13:39:22;1.30;85.30
10133;DHT22;5106;50.926;7.080;2022-12-10T13:53:20;1.30;85.20
10133;DHT22;5106;50.926;7.080;2022-12-10T13:56:05;1.20;85.30
10133;DHT22;5106;50.926;7.080;2022-12-10T14:07:22;1.30;85.60
10133;DHT22;5106;50.926;7.080;2022-12-10T14:09:53;1.30;85.60
10133;DHT22;5106;50.926;7.080;2022-12-10T14:12:46;1.30;85.50
10133;DHT22;5106;50.926;7.080;2022-12-10T14:15:24;1.30;85.50
10133;DHT22;5106;50.926;7.080;2022-12-10T14:17:56;1.30;85.60
10133;DHT22;5106;50.926;7.080;2022-12-10T14:20:24;1.30;85.50
10133;DHT22;5106;50.926;7.080;2022-12-10T14:22:55;1.30;85.50
10133;DHT22;5106;50.926;7.080;2022-12-10T14:25:45;1.30;85.50
10133;DHT22;5106;50.926;7.080;2022-12-10T14:28:14;1.30;85.50
10133;DHT22;5106;50.926;7.080;2022-12-10T14:30:45;1.30;85.50
10133;DHT22;5106;50.926;7.080;2022-12-10T14:33:22;1.30;85.60
10133;DHT22;5106;50.926;7.080;2022-12-10T14:35:50;1.30;85.60
10133;DHT22;5106;50.926;7.080;2022-12-10T14:38:23;1.30;85.60
10133;DHT22;5106;50.926;7.080;2022-12-10T14:40:53;1.30;85.80
10133;DHT22;5106;50.926;7.080;2022-12-10T14:43:45;1.30;85.80
10133;DHT22;5106;50.926;7.080;2022-12-10T14:46:24;1.30;85.90
10133;DHT22;5106;50.926;7.080;2022-12-10T14:48:51;1.30;85.90
10133;DHT22;5106;50.926;7.080;2022-12-10T14:51:21;1.30;86.00
10133;DHT22;5106;50.926;7.080;2022-12-10T14:53:48;1.30;86.10
10133;DHT22;5106;50.926;7.080;2022-12-10T14:56:33;1.30;86.20
10133;DHT22;5106;50.926;7.080;2022-12-10T14:59:12;1.30;86.30
10133;DHT22;5106;50.926;7.080;2022-12-10T15:01:44;1.30;86.20
10133;DHT22;5106;50.926;7.080;2022-12-10T15:04:18;1.30;86.20
10133;DHT22;5106;50.926;7.080;2022-12-10T15:06:44;1.30;86.20
10133;DHT22;5106;50.926;7.080;2022-12-10T15:09:19;1.20;86.20
10133;DHT22;5106;50.926;7.080;2022-12-10T15:11:55;1.30;86.30
10133;DHT22;5106;50.926;7.080;2022-12-10T15:14:21;1.20;86.30
10133;DHT22;5106;50.926;7.080;2022-12-10T15:16:49;1.20;86.40
10133;DHT22;5106;50.926;7.080;2022-12-10T15:21:50;1.20;86.40
10133;DHT22;5106;50.926;7.080;2022-12-10T15:24:25;1.20;86.40
10133;DHT22;5106;50.926;7.080;2022-12-10T15:26:51;1.20;86.50
10133;DHT22;5106;50.926;7.080;2022-12-10T15:32:00;1.20;86.20
10133;DHT22;5106;50.926;7.080;2022-12-10T15:34:28;1.10;86.20
10133;DHT22;5106;50.926;7.080;2022-12-10T15:37:01;1.10;86.30
10133;DHT22;5106;50.926;7.080;2022-12-10T15:39:37;1.10;86.20
10133;DHT22;5106;50.926;7.080;2022-12-10T15:42:08;1.10;86.20
10133;DHT22;5106;50.926;7.080;2022-12-10T15:44:41;1.10;86.20
10133;DHT22;5106;50.926;7.080;2022-12-10T15:47:26;1.10;86.30
10133;DHT22;5106;50.926;7.080;2022-12-10T15:49:54;1.10;86.30
10133;DHT22;5106;50.926;7.080;2022-12-10T15:52:28;1.10;86.20
10133;DHT22;5106;50.926;7.080;2022-12-10T15:54:56;1.10;86.20
10133;DHT22;5106;50.926;7.080;2022-12-10T15:57:23;1.10;86.30
10133;DHT22;5106;50.926;7.080;2022-12-10T15:59:51;1.10;86.20
10133;DHT22;5106;50.926;7.080;2022-12-10T16:02:40;1.10;86.20
10133;DHT22;5106;50.926;7.080;2022-12-10T16:05:15;1.00;86.20
10133;DHT22;5106;50.926;7.080;2022-12-10T16:07:42;1.00;86.30
10133;DHT22;5106;50.926;7.080;2022-12-10T16:10:09;1.00;86.20
10133;DHT22;5106;50.926;7.080;2022-12-10T16:12:37;1.00;86.30
10133;DHT22;5106;50.926;7.080;2022-12-10T16:15:04;1.00;86.40
10133;DHT22;5106;50.926;7.080;2022-12-10T16:17:30;1.00;86.20
10133;DHT22;5106;50.926;7.080;2022-12-10T16:19:58;1.00;86.20
10133;DHT22;5106;50.926;7.080;2022-12-10T16:22:24;0.90;86.20
10133;DHT22;5106;50.926;7.080;2022-12-10T16:24:50;1.00;86.20
10133;DHT22;5106;50.926;7.080;2022-12-10T16:27:16;1.00;86.20
10133;DHT22;5106;50.926;7.080;2022-12-10T16:29:42;1.00;86.10
10133;DHT22;5106;50.926;7.080;2022-12-10T16:32:09;1.00;86.20
10133;DHT22;5106;50.926;7.080;2022-12-10T16:34:35;1.00;86.10
10133;DHT22;5106;50.926;7.080;2022-12-10T16:37:01;0.90;86.20
10133;DHT22;5106;50.926;7.080;2022-12-10T16:39:27;0.90;86.20
10133;DHT22;5106;50.926;7.080;2022-12-10T16:41:54;0.90;86.20
10133;DHT22;5106;50.926;7.080;2022-12-10T16:44:20;0.90;86.20
10133;DHT22;5106;50.926;7.080;2022-12-10T16:46:45;0.90;86.20
10133;DHT22;5106;50.926;7.080;2022-12-10T16:49:11;0.90;86.10
10133;DHT22;5106;50.926;7.080;2022-12-10T16:51:37;0.90;86.10
10133;DHT22;5106;50.926;7.080;2022-12-10T16:54:03;0.90;85.90
10133;DHT22;5106;50.926;7.080;2022-12-10T16:56:30;0.90;86.10
10133;DHT22;5106;50.926;7.080;2022-12-10T16:58:56;0.90;86.00
10133;DHT22;5106;50.926;7.080;2022-12-10T17:01:24;0.90;85.80
10133;DHT22;5106;50.926;7.080;2022-12-10T17:03:53;0.90;85.70
10133;DHT22;5106;50.926;7.080;2022-12-10T17:06:19;0.90;85.80
10133;DHT22;5106;50.926;7.080;2022-12-10T17:08:45;0.90;85.80
10133;DHT22;5106;50.926;7.080;2022-12-10T17:11:21;0.90;85.80
10133;DHT22;5106;50.926;7.080;2022-12-10T17:14:23;0.90;85.70
10133;DHT22;5106;50.926;7.080;2022-12-10T17:16:49;0.90;85.60
10133;DHT22;5106;50.926;7.080;2022-12-10T17:19:16;0.90;85.50
10133;DHT22;5106;50.926;7.080;2022-12-10T17:21:41;0.90;85.50
10133;DHT22;5106;50.926;7.080;2022-12-10T17:24:07;0.90;85.50
10133;DHT22;5106;50.926;7.080;2022-12-10T17:26:35;0.90;85.50
10133;DHT22;5106;50.926;7.080;2022-12-10T17:31:47;0.90;85.70
10133;DHT22;5106;50.926;7.080;2022-12-10T17:34:13;0.90;85.60
10133;DHT22;5106;50.926;7.080;2022-12-10T17:36:40;0.90;85.60
10133;DHT22;5106;50.926;7.080;2022-12-10T17:39:08;0.90;85.70
10133;DHT22;5106;50.926;7.080;2022-12-10T17:41:36;0.90;85.60
10133;DHT22;5106;50.926;7.080;2022-12-10T17:44:03;0.90;85.60
10133;DHT22;5106;50.926;7.080;2022-12-10T17:46:28;0.80;85.60
10133;DHT22;5106;50.926;7.080;2022-12-10T17:48:54;0.80;85.50
10133;DHT22;5106;50.926;7.080;2022-12-10T17:51:19;0.80;85.60
10133;DHT22;5106;50.926;7.080;2022-12-10T17:53:45;0.80;85.70
10133;DHT22;5106;50.926;7.080;2022-12-10T17:56:16;0.90;85.70
10133;DHT22;5106;50.926;7.080;2022-12-10T17:58:42;0.80;85.70
10133;DHT22;5106;50.926;7.080;2022-12-10T18:01:08;0.80;85.60
10133;DHT22;5106;50.926;7.080;2022-12-10T18:03:37;0.80;85.50
10133;DHT22;5106;50.926;7.080;2022-12-10T18:06:25;0.80;85.50
10133;DHT22;5106;50.926;7.080;2022-12-10T18:08:52;0.80;85.60
10133;DHT22;5106;50.926;7.080;2022-12-10T18:11:26;0.80;85.50
10133;DHT22;5106;50.926;7.080;2022-12-10T18:13:52;0.80;85.50
10133;DHT22;5106;50.926;7.080;2022-12-10T18:16:21;0.80;85.40
10133;DHT22;5106;50.926;7.080;2022-12-10T18:18:47;0.80;85.40